createdAt,value
2017-10-23T00:02:10.785Z,7.90
2017-10-23T00:04:38.281Z,7.90
2017-10-23T00:07:05.797Z,7.90
2017-10-23T00:09:33.298Z,7.90
2017-10-23T00:12:00.826Z,8.00
2017-10-23T00:14:28.329Z,8.00
2017-10-23T00:16:55.845Z,8.00
2017-10-23T00:19:23.345Z,8.00
2017-10-23T00:21:50.856Z,8.00
2017-10-23T00:24:19.336Z,8.10
2017-10-23T00:26:46.854Z,8.10
2017-10-23T00:29:14.348Z,8.20
2017-10-23T00:31:41.862Z,8.10
2017-10-23T00:34:12.337Z,8.20
2017-10-23T00:36:39.853Z,8.10
2017-10-23T00:39:07.342Z,8.10
2017-10-23T00:41:34.852Z,8.10
2017-10-23T00:44:05.040Z,8.10
2017-10-23T00:46:32.556Z,8.10
2017-10-23T00:49:00.045Z,8.20
2017-10-23T00:51:27.568Z,8.10
2017-10-23T00:53:55.081Z,8.10
2017-10-23T00:56:22.598Z,8.10
2017-10-23T00:58:50.089Z,8.00
2017-10-23T01:01:17.607Z,8.00
2017-10-23T01:03:48.811Z,8.00
2017-10-23T01:06:16.324Z,8.00
2017-10-23T01:08:43.822Z,8.00
2017-10-23T01:11:11.339Z,8.00
2017-10-23T01:13:39.775Z,7.90
2017-10-23T01:16:07.289Z,7.90
2017-10-23T01:18:34.778Z,7.80
2017-10-23T01:21:04.314Z,7.90
2017-10-23T01:23:33.597Z,7.80
2017-10-23T01:26:01.111Z,7.70
2017-10-23T01:28:28.607Z,7.90
2017-10-23T01:30:56.130Z,8.00
2017-10-23T01:33:23.626Z,8.00
2017-10-23T01:35:51.141Z,8.00
2017-10-23T01:38:18.650Z,8.00
2017-10-23T01:40:46.166Z,8.00
2017-10-23T01:43:13.658Z,8.00
2017-10-23T01:45:41.173Z,8.00
2017-10-23T01:48:08.666Z,8.00
2017-10-23T01:50:36.164Z,8.00
2017-10-23T01:53:06.395Z,7.80
2017-10-23T01:55:34.653Z,7.80
2017-10-23T01:58:02.174Z,7.70
2017-10-23T02:00:29.668Z,7.80
2017-10-23T02:02:57.173Z,7.70
2017-10-23T02:05:24.675Z,7.60
2017-10-23T02:07:52.208Z,7.60
2017-10-23T02:10:19.705Z,7.60
2017-10-23T02:12:50.224Z,7.60
2017-10-23T02:15:17.740Z,7.70
2017-10-23T02:17:45.245Z,7.70
2017-10-23T02:20:12.757Z,7.80
2017-10-23T02:22:40.248Z,7.80
2017-10-23T02:25:07.810Z,7.80
2017-10-23T02:27:35.313Z,7.70
2017-10-23T02:30:03.591Z,7.80
2017-10-23T02:32:31.859Z,7.80
2017-10-23T02:34:59.416Z,7.70
2017-10-23T02:37:26.913Z,7.80
2017-10-23T02:39:54.401Z,7.80
2017-10-23T02:42:21.928Z,7.70
2017-10-23T02:44:49.432Z,7.70
2017-10-23T02:47:16.953Z,7.70
2017-10-23T02:49:44.449Z,7.70
2017-10-23T02:52:11.969Z,7.70
2017-10-23T02:54:39.469Z,7.70
2017-10-23T02:57:06.989Z,7.60
2017-10-23T02:59:34.487Z,7.60
2017-10-23T03:02:01.998Z,7.60
2017-10-23T03:04:29.489Z,7.60
2017-10-23T03:06:56.989Z,7.60
2017-10-23T03:09:24.514Z,7.50
2017-10-23T03:11:52.014Z,7.50
2017-10-23T03:14:20.301Z,7.50
2017-10-23T03:16:48.559Z,7.50
2017-10-23T03:19:16.069Z,7.40
2017-10-23T03:21:43.566Z,7.40
2017-10-23T03:24:11.080Z,7.30
2017-10-23T03:26:39.517Z,7.30
2017-10-23T03:29:07.027Z,7.30
2017-10-23T03:31:34.523Z,7.30
2017-10-23T03:34:02.031Z,7.30
2017-10-23T03:36:29.542Z,7.30
2017-10-23T03:38:57.038Z,7.20
2017-10-23T03:41:25.321Z,7.20
2017-10-23T03:43:52.832Z,7.10
2017-10-23T03:46:20.354Z,7.10
2017-10-23T03:48:47.846Z,7.00
2017-10-23T03:51:15.336Z,7.00
2017-10-23T03:53:42.844Z,7.00
2017-10-23T03:56:10.481Z,7.00
2017-10-23T03:58:37.983Z,7.00
2017-10-23T04:01:05.480Z,7.00
2017-10-23T04:03:33.753Z,6.90
2017-10-23T04:06:02.009Z,6.90
2017-10-23T04:08:29.495Z,6.80
2017-10-23T04:10:57.770Z,6.80
2017-10-23T04:13:26.032Z,6.90
2017-10-23T04:15:53.537Z,6.80
2017-10-23T04:18:21.028Z,6.90
2017-10-23T04:20:48.537Z,6.90
2017-10-23T04:23:16.797Z,6.90
2017-10-23T04:25:45.092Z,6.90
2017-10-23T04:28:13.345Z,6.90
2017-10-23T04:30:40.866Z,6.80
2017-10-23T04:33:08.381Z,6.80
2017-10-23T04:35:36.636Z,6.80
2017-10-23T04:38:04.136Z,6.70
2017-10-23T04:40:31.859Z,6.90
2017-10-23T04:42:59.356Z,6.90
2017-10-23T04:45:26.838Z,7.00
2017-10-23T04:47:54.324Z,7.00
2017-10-23T04:50:21.832Z,7.10
2017-10-23T04:52:49.313Z,7.10
2017-10-23T04:55:16.821Z,7.10
2017-10-23T04:57:44.313Z,7.10
2017-10-23T05:00:11.901Z,7.00
2017-10-23T05:02:39.398Z,7.10
2017-10-23T05:05:06.879Z,7.20
2017-10-23T05:07:35.279Z,7.20
2017-10-23T05:10:02.777Z,7.10
2017-10-23T05:12:30.293Z,7.10
2017-10-23T05:14:57.795Z,7.20
2017-10-23T05:17:25.312Z,7.20
2017-10-23T05:19:52.817Z,7.20
2017-10-23T05:22:20.316Z,7.20
2017-10-23T05:24:48.601Z,7.20
2017-10-23T05:27:16.092Z,7.10
2017-10-23T05:29:43.611Z,7.20
2017-10-23T05:32:11.868Z,7.30
2017-10-23T05:34:39.391Z,7.20
2017-10-23T05:37:07.042Z,7.30
2017-10-23T05:39:34.550Z,7.40
2017-10-23T05:42:02.849Z,7.40
2017-10-23T05:44:31.213Z,7.30
2017-10-23T05:46:59.493Z,7.30
2017-10-23T05:49:27.747Z,7.40
2017-10-23T05:51:55.262Z,7.20
2017-10-23T05:54:22.764Z,7.40
2017-10-23T05:56:50.275Z,7.40
2017-10-23T05:59:17.929Z,7.50
2017-10-23T06:01:45.520Z,7.40
2017-10-23T06:04:14.028Z,7.50
2017-10-23T06:06:41.542Z,7.50
2017-10-23T06:09:09.050Z,7.50
2017-10-23T06:11:36.570Z,7.40
2017-10-23T06:14:04.131Z,7.40
2017-10-23T06:16:31.642Z,7.40
2017-10-23T06:19:00.172Z,7.40
2017-10-23T06:21:27.756Z,7.30
2017-10-23T06:23:55.265Z,7.50
2017-10-23T06:26:23.526Z,7.60
2017-10-23T06:28:51.037Z,7.50
2017-10-23T06:31:19.425Z,7.60
2017-10-23T06:33:46.945Z,7.50
2017-10-23T06:36:15.232Z,7.50
2017-10-23T06:38:42.733Z,7.50
2017-10-23T06:41:10.637Z,7.60
2017-10-23T06:43:38.902Z,7.70
2017-10-23T06:46:06.394Z,7.60
2017-10-23T06:48:33.913Z,7.70
2017-10-23T06:51:01.414Z,7.70
2017-10-23T06:53:28.929Z,7.60
2017-10-23T06:55:56.425Z,7.70
2017-10-23T06:58:24.709Z,7.70
2017-10-23T07:00:52.192Z,7.60
2017-10-23T07:03:19.716Z,7.80
2017-10-23T07:05:47.987Z,7.90
2017-10-23T07:08:16.271Z,8.00
2017-10-23T07:10:44.545Z,8.10
2017-10-23T07:13:12.834Z,8.20
2017-10-23T07:15:41.121Z,8.20
2017-10-23T07:18:08.644Z,8.10
2017-10-23T07:20:36.145Z,8.20
2017-10-23T07:23:03.637Z,8.40
2017-10-23T07:25:31.142Z,8.50
2017-10-23T07:27:59.488Z,8.60
2017-10-23T07:30:26.997Z,8.70
2017-10-23T07:32:54.489Z,8.80
2017-10-23T07:35:22.013Z,8.90
2017-10-23T07:37:49.509Z,9.00
2017-10-23T07:40:17.017Z,8.90
2017-10-23T07:42:44.522Z,8.80
2017-10-23T07:45:12.047Z,8.90
2017-10-23T07:47:39.544Z,9.00
2017-10-23T07:50:07.056Z,9.00
2017-10-23T07:52:35.330Z,9.20
2017-10-23T07:55:03.592Z,9.00
2017-10-23T07:57:31.113Z,9.00
2017-10-23T07:59:58.605Z,9.00
2017-10-23T08:02:26.142Z,9.10
2017-10-23T08:04:53.637Z,9.10
2017-10-23T08:07:21.910Z,9.20
2017-10-23T08:09:49.429Z,9.10
2017-10-23T08:12:16.937Z,9.30
2017-10-23T08:14:45.222Z,9.40
2017-10-23T08:17:13.477Z,9.50
2017-10-23T08:19:41.002Z,9.40
2017-10-23T08:22:08.510Z,9.60
2017-10-23T08:24:36.781Z,9.60
2017-10-23T08:27:05.071Z,9.70
2017-10-23T08:29:33.473Z,9.80
2017-10-23T08:32:00.990Z,9.70
2017-10-23T08:34:28.489Z,10.00
2017-10-23T08:36:56.266Z,10.00
2017-10-23T08:39:23.770Z,10.10
2017-10-23T08:41:51.307Z,10.00
2017-10-23T08:44:18.844Z,9.90
2017-10-23T08:46:46.349Z,9.80
2017-10-23T08:49:13.959Z,9.60
2017-10-23T08:51:41.501Z,9.50
2017-10-23T08:54:09.789Z,9.50
2017-10-23T08:56:37.296Z,9.40
2017-10-23T08:59:05.652Z,9.70
2017-10-23T09:01:33.149Z,9.60
2017-10-23T09:04:00.678Z,9.80
2017-10-23T09:06:28.294Z,9.90
2017-10-23T09:08:56.568Z,10.20
2017-10-23T09:11:24.086Z,10.10
2017-10-23T09:13:51.594Z,10.30
2017-10-23T09:16:19.130Z,10.40
2017-10-23T09:18:46.653Z,10.30
2017-10-23T09:21:14.173Z,10.30
2017-10-23T09:23:41.692Z,10.30
2017-10-23T09:26:09.212Z,10.30
2017-10-23T09:28:36.717Z,10.50
2017-10-23T09:31:04.224Z,10.60
2017-10-23T09:33:31.753Z,10.60
2017-10-23T09:36:01.663Z,10.70
2017-10-23T09:38:30.734Z,10.80
2017-10-23T09:40:58.272Z,10.70
2017-10-23T09:43:25.809Z,10.90
2017-10-23T09:45:53.355Z,11.00
2017-10-23T09:48:20.907Z,10.90
2017-10-23T09:50:49.210Z,11.20
2017-10-23T09:53:16.709Z,11.10
2017-10-23T09:55:44.225Z,11.30
2017-10-23T09:58:11.724Z,11.40
2017-10-23T10:00:39.259Z,11.40
2017-10-23T10:03:06.765Z,11.20
2017-10-23T10:05:34.278Z,11.00
2017-10-23T10:08:01.798Z,11.00
2017-10-23T10:10:30.075Z,10.80
2017-10-23T10:12:58.372Z,10.60
2017-10-23T10:15:26.817Z,10.50
2017-10-23T10:17:54.332Z,10.50
2017-10-23T10:20:21.843Z,10.40
2017-10-23T10:22:49.371Z,10.30
2017-10-23T10:25:16.880Z,10.30
2017-10-23T10:27:45.157Z,10.40
2017-10-23T10:30:13.446Z,10.40
2017-10-23T10:32:41.012Z,10.30
2017-10-23T10:35:08.539Z,10.50
2017-10-23T10:37:36.045Z,10.80
2017-10-23T10:40:03.569Z,10.80
2017-10-23T10:42:31.842Z,10.80
2017-10-23T10:45:00.133Z,10.90
2017-10-23T10:47:28.407Z,10.90
2017-10-23T10:49:56.678Z,10.70
2017-10-23T10:52:24.968Z,10.60
2017-10-23T10:54:53.232Z,10.60
2017-10-23T10:57:21.519Z,10.60
2017-10-23T10:59:49.788Z,10.80
2017-10-23T11:02:18.086Z,10.80
2017-10-23T11:04:45.602Z,10.70
2017-10-23T11:07:13.113Z,10.90
2017-10-23T11:09:40.641Z,10.90
2017-10-23T11:12:08.915Z,10.80
2017-10-23T11:14:36.437Z,10.70
2017-10-23T11:17:03.946Z,10.80
2017-10-23T11:19:32.249Z,10.70
2017-10-23T11:21:59.764Z,10.70
2017-10-23T11:24:27.297Z,10.70
2017-10-23T11:26:54.805Z,10.40
2017-10-23T11:29:23.073Z,10.60
2017-10-23T11:31:50.597Z,10.50
2017-10-23T11:34:18.097Z,10.60
2017-10-23T11:36:46.400Z,10.80
2017-10-23T11:39:14.140Z,10.70
2017-10-23T11:41:41.681Z,11.00
2017-10-23T11:44:09.188Z,11.20
2017-10-23T11:46:36.704Z,11.20
2017-10-23T11:49:04.205Z,11.30
2017-10-23T11:51:31.706Z,11.60
2017-10-23T11:53:59.231Z,11.60
2017-10-23T11:56:26.737Z,11.40
2017-10-23T11:58:54.261Z,11.50
2017-10-23T12:01:21.760Z,11.50
2017-10-23T12:03:49.286Z,11.40
2017-10-23T12:06:16.786Z,11.60
2017-10-23T12:08:44.303Z,11.50
2017-10-23T12:11:11.831Z,11.30
2017-10-23T12:13:39.338Z,11.20
2017-10-23T12:16:06.864Z,11.30
2017-10-23T12:18:34.361Z,11.30
2017-10-23T12:21:01.905Z,11.00
2017-10-23T12:23:29.402Z,10.80
2017-10-23T12:25:57.729Z,10.80
2017-10-23T12:28:25.254Z,10.70
2017-10-23T12:30:53.532Z,10.90
2017-10-23T12:33:21.829Z,10.80
2017-10-23T12:35:49.336Z,10.70
2017-10-23T12:38:16.863Z,10.90
2017-10-23T12:40:44.364Z,11.10
2017-10-23T12:43:11.888Z,11.30
2017-10-23T12:45:39.381Z,11.20
2017-10-23T12:48:06.913Z,11.10
2017-10-23T12:50:34.421Z,11.10
2017-10-23T12:53:02.690Z,11.20
2017-10-23T12:55:30.213Z,11.10
2017-10-23T12:57:57.716Z,11.20
2017-10-23T13:00:25.236Z,11.10
2017-10-23T13:02:52.744Z,11.00
2017-10-23T13:05:21.361Z,11.10
2017-10-23T13:07:49.454Z,11.00
2017-10-23T13:10:16.961Z,11.00
2017-10-23T13:12:44.497Z,11.10
2017-10-23T13:15:12.011Z,11.10
2017-10-23T13:17:39.548Z,11.10
2017-10-23T13:20:07.066Z,11.10
2017-10-23T13:22:34.599Z,11.00
2017-10-23T13:25:02.106Z,10.80
2017-10-23T13:27:29.634Z,10.90
2017-10-23T13:29:57.176Z,10.90
2017-10-23T13:32:24.695Z,10.90
2017-10-23T13:34:52.244Z,11.00
2017-10-23T13:37:20.520Z,11.10
2017-10-23T13:39:48.201Z,11.00
2017-10-23T13:42:16.506Z,11.00
2017-10-23T13:44:44.034Z,10.90
2017-10-23T13:47:12.322Z,10.90
2017-10-23T13:49:39.841Z,10.80
2017-10-23T13:52:07.369Z,10.90
2017-10-23T13:54:34.946Z,11.20
2017-10-23T13:57:02.486Z,11.10
2017-10-23T13:59:30.001Z,11.20
2017-10-23T14:01:58.297Z,11.00
2017-10-23T14:04:26.560Z,11.00
2017-10-23T14:06:54.833Z,10.80
2017-10-23T14:09:22.349Z,10.80
2017-10-23T14:11:49.849Z,10.90
2017-10-23T14:14:17.368Z,10.90
2017-10-23T14:16:44.873Z,10.90
2017-10-23T14:19:12.390Z,10.90
2017-10-23T14:21:39.889Z,10.90
2017-10-23T14:24:07.409Z,10.70
2017-10-23T14:26:34.911Z,10.60
2017-10-23T14:29:03.182Z,10.50
2017-10-23T14:31:30.700Z,10.50
2017-10-23T14:34:04.910Z,10.60
2017-10-23T14:36:32.432Z,10.60
2017-10-23T14:39:00.684Z,10.40
2017-10-23T14:41:28.205Z,10.30
2017-10-23T14:44:01.519Z,10.40
2017-10-23T14:46:29.069Z,10.50
2017-10-23T14:48:56.605Z,10.60
2017-10-23T14:51:24.130Z,10.40
2017-10-23T14:53:59.673Z,10.40
2017-10-23T14:56:27.232Z,10.30
2017-10-23T14:58:55.619Z,10.50
2017-10-23T15:01:23.918Z,10.50
2017-10-23T15:03:51.453Z,10.50
2017-10-23T15:06:18.952Z,10.60
2017-10-23T15:08:46.501Z,10.60
2017-10-23T15:11:14.013Z,10.50
2017-10-23T15:13:41.528Z,10.50
2017-10-23T15:16:09.054Z,10.30
2017-10-23T15:18:37.333Z,10.20
2017-10-23T15:21:05.627Z,10.30
2017-10-23T15:23:33.133Z,10.20
2017-10-23T15:26:00.658Z,10.20
2017-10-23T15:28:28.164Z,10.30
2017-10-23T15:30:55.676Z,10.30
2017-10-23T15:33:23.744Z,10.30
2017-10-23T15:35:51.248Z,10.10
2017-10-23T15:38:18.765Z,10.10
2017-10-23T15:40:46.277Z,10.10
2017-10-23T15:43:13.797Z,10.10
2017-10-23T15:45:41.406Z,10.00
2017-10-23T15:48:08.937Z,10.10
2017-10-23T15:50:36.437Z,10.10
2017-10-23T15:53:03.938Z,10.00
2017-10-23T15:55:31.461Z,9.90
2017-10-23T15:57:59.749Z,9.70
2017-10-23T16:00:28.029Z,9.70
2017-10-23T16:02:56.290Z,9.60
2017-10-23T16:05:29.635Z,9.50
2017-10-23T16:07:57.246Z,9.60
2017-10-23T16:10:24.740Z,9.60
2017-10-23T16:12:52.257Z,9.60
2017-10-23T16:15:19.774Z,9.60
2017-10-23T16:17:47.300Z,9.60
2017-10-23T16:20:15.566Z,9.70
2017-10-23T16:22:43.848Z,9.70
2017-10-23T16:25:12.109Z,9.70
2017-10-23T16:27:39.621Z,9.60
2017-10-23T16:30:07.116Z,9.70
2017-10-23T16:32:34.615Z,9.70
2017-10-23T16:35:09.647Z,9.70
2017-10-23T16:37:37.168Z,9.60
2017-10-23T16:40:04.682Z,9.70
2017-10-23T16:42:32.184Z,9.70
2017-10-23T16:44:59.701Z,9.60
2017-10-23T16:47:27.202Z,9.50
2017-10-23T16:49:54.745Z,9.50
2017-10-23T16:52:22.259Z,9.40
2017-10-23T16:54:50.512Z,9.30
2017-10-23T16:57:18.062Z,9.20
2017-10-23T16:59:45.558Z,9.40
2017-10-23T17:02:13.843Z,9.50
2017-10-23T17:04:41.349Z,9.40
2017-10-23T17:07:08.932Z,9.50
2017-10-23T17:09:36.428Z,9.50
2017-10-23T17:12:14.824Z,9.40
2017-10-23T17:14:43.078Z,9.30
2017-10-23T17:17:10.564Z,9.20
2017-10-23T17:19:38.852Z,9.20
2017-10-23T17:22:07.123Z,9.20
2017-10-23T17:24:35.396Z,9.20
2017-10-23T17:27:03.701Z,9.20
2017-10-23T17:29:31.994Z,9.10
2017-10-23T17:31:59.490Z,9.00
2017-10-23T17:34:27.002Z,9.00
2017-10-23T17:36:54.794Z,8.90
2017-10-23T17:39:22.294Z,8.80
2017-10-23T17:41:50.593Z,8.80
2017-10-23T17:44:18.100Z,8.70
2017-10-23T17:46:45.621Z,8.70
2017-10-23T17:49:13.109Z,8.70
2017-10-23T17:51:41.614Z,8.70
2017-10-23T17:54:09.113Z,8.70
2017-10-23T17:56:36.600Z,8.60
2017-10-23T17:59:04.920Z,8.50
2017-10-23T18:01:32.421Z,8.40
2017-10-23T18:04:02.205Z,8.50
2017-10-23T18:06:30.473Z,8.50
2017-10-23T18:08:58.756Z,8.50
2017-10-23T18:11:29.767Z,8.50
2017-10-23T18:13:57.265Z,8.40
2017-10-23T18:16:25.554Z,8.60
2017-10-23T18:18:53.042Z,8.50
2017-10-23T18:21:20.564Z,8.60
2017-10-23T18:23:48.828Z,8.60
2017-10-23T18:26:17.110Z,8.60
2017-10-23T18:28:45.384Z,8.50
2017-10-23T18:31:13.673Z,8.60
2017-10-23T18:33:41.941Z,8.50
2017-10-23T18:36:10.248Z,8.50
2017-10-23T18:38:37.791Z,8.40
2017-10-23T18:41:06.060Z,8.60
2017-10-23T18:43:34.338Z,8.60
2017-10-23T18:46:02.597Z,8.50
2017-10-23T18:48:30.118Z,8.40
2017-10-23T18:50:57.635Z,8.50
2017-10-23T18:53:25.934Z,8.60
2017-10-23T18:55:53.443Z,8.50
2017-10-23T18:58:20.963Z,8.60
2017-10-23T19:00:48.473Z,8.60
2017-10-23T19:03:18.909Z,8.60
2017-10-23T19:05:47.215Z,8.40
2017-10-23T19:08:14.715Z,8.30
2017-10-23T19:10:46.039Z,8.40
2017-10-23T19:13:13.580Z,8.50
2017-10-23T19:15:41.125Z,8.60
2017-10-23T19:18:10.724Z,8.60
2017-10-23T19:20:38.993Z,8.50
2017-10-23T19:23:06.510Z,8.40
2017-10-23T19:25:34.030Z,8.60
2017-10-23T19:28:02.328Z,8.60
2017-10-23T19:30:31.226Z,8.50
2017-10-23T19:33:04.810Z,8.60
2017-10-23T19:35:34.482Z,8.60
2017-10-23T19:38:02.913Z,8.50
2017-10-23T19:40:30.410Z,8.60
2017-10-23T19:42:57.904Z,8.50
2017-10-23T19:45:26.278Z,8.40
2017-10-23T19:47:53.808Z,8.40
2017-10-23T19:50:21.435Z,8.50
2017-10-23T19:52:48.929Z,8.50
2017-10-23T19:55:16.498Z,8.50
2017-10-23T19:57:44.000Z,8.50
2017-10-23T20:00:11.533Z,8.50
2017-10-23T20:02:43.018Z,8.50
2017-10-23T20:05:10.523Z,8.50
2017-10-23T20:07:38.041Z,8.60
2017-10-23T20:10:05.532Z,8.60
2017-10-23T20:12:33.044Z,8.60
2017-10-23T20:15:01.313Z,8.60
2017-10-23T20:17:29.569Z,8.60
2017-10-23T20:19:57.085Z,8.50
2017-10-23T20:22:24.704Z,8.60
2017-10-23T20:24:52.225Z,8.50
2017-10-23T20:27:19.714Z,8.50
2017-10-23T20:29:47.237Z,8.60
2017-10-23T20:32:14.761Z,8.70
2017-10-23T20:34:43.022Z,8.70
2017-10-23T20:37:11.294Z,8.70
2017-10-23T20:39:38.776Z,8.60
2017-10-23T20:42:07.057Z,8.60
2017-10-23T20:44:34.609Z,8.50
2017-10-23T20:47:02.904Z,8.60
2017-10-23T20:49:30.399Z,8.50
2017-10-23T20:51:57.893Z,8.60
2017-10-23T20:54:26.177Z,8.60
2017-10-23T20:56:54.424Z,8.50
2017-10-23T20:59:21.945Z,8.40
2017-10-23T21:01:49.439Z,8.50
2017-10-23T21:04:16.951Z,8.50
2017-10-23T21:06:44.441Z,8.50
2017-10-23T21:09:11.941Z,8.50
2017-10-23T21:11:40.224Z,8.60
2017-10-23T21:14:10.412Z,8.60
2017-10-23T21:16:37.917Z,8.40
2017-10-23T21:19:06.173Z,8.60
2017-10-23T21:21:34.065Z,8.60
2017-10-23T21:24:02.334Z,8.60
2017-10-23T21:26:30.596Z,8.60
2017-10-23T21:28:58.096Z,8.50
2017-10-23T21:31:25.589Z,8.60
2017-10-23T21:33:53.092Z,8.60
2017-10-23T21:36:21.361Z,8.50
2017-10-23T21:38:49.640Z,8.40
2017-10-23T21:41:17.896Z,8.40
2017-10-23T21:43:46.367Z,8.30
2017-10-23T21:46:13.883Z,8.50
2017-10-23T21:48:41.378Z,8.50
2017-10-23T21:51:09.706Z,8.50
2017-10-23T21:53:37.233Z,8.50
2017-10-23T21:56:04.744Z,8.50
2017-10-23T21:58:32.457Z,8.50
2017-10-23T22:01:00.193Z,8.50
2017-10-23T22:03:28.719Z,8.40
2017-10-23T22:05:56.981Z,8.50
2017-10-23T22:08:24.493Z,8.40
2017-10-23T22:10:51.991Z,8.50
2017-10-23T22:13:20.502Z,8.50
2017-10-23T22:15:48.759Z,8.50
2017-10-23T22:18:16.294Z,8.40
2017-10-23T22:20:43.805Z,8.50
2017-10-23T22:23:13.081Z,8.60
2017-10-23T22:25:40.598Z,8.50
2017-10-23T22:28:08.088Z,8.60
2017-10-23T22:30:35.593Z,8.60
2017-10-23T22:33:03.853Z,8.50
2017-10-23T22:35:32.137Z,8.50
2017-10-23T22:38:00.393Z,8.50
2017-10-23T22:40:27.881Z,8.40
2017-10-23T22:42:56.160Z,8.60
2017-10-23T22:45:24.421Z,8.60
2017-10-23T22:47:52.703Z,8.60
2017-10-23T22:50:20.957Z,8.60
2017-10-23T22:52:48.468Z,8.50
2017-10-23T22:55:15.964Z,8.60
2017-10-23T22:57:43.469Z,8.70
2017-10-23T23:00:11.781Z,8.70
2017-10-23T23:02:39.268Z,8.60
2017-10-23T23:05:06.787Z,8.70
2017-10-23T23:07:34.287Z,8.70
2017-10-23T23:10:01.805Z,8.70
2017-10-23T23:12:29.301Z,8.70
2017-10-23T23:14:56.792Z,8.70
2017-10-23T23:17:25.067Z,8.60
2017-10-23T23:19:53.325Z,8.70
2017-10-23T23:22:20.894Z,8.60
2017-10-23T23:24:48.385Z,8.70
2017-10-23T23:27:15.896Z,8.80
2017-10-23T23:29:43.391Z,8.80
2017-10-23T23:32:10.884Z,8.80
2017-10-23T23:34:38.398Z,8.90
2017-10-23T23:37:06.648Z,9.00
2017-10-23T23:39:34.145Z,8.90
2017-10-23T23:42:02.409Z,9.10
2017-10-23T23:44:30.697Z,9.00
2017-10-23T23:46:58.962Z,9.00
2017-10-23T23:49:26.452Z,8.90
2017-10-23T23:51:53.956Z,9.00
2017-10-23T23:54:21.691Z,9.00
2017-10-23T23:56:49.207Z,9.00
2017-10-23T23:59:17.477Z,8.90
